Time;durP1;ratioP1;P1;durP2;ratioP2;P2;SDS_P1;SDS_P2;PMS_P1;PMS_P2;Temp;Humidity;BMP_temperature;BMP_pressure;BME280_temperature;BME280_humidity;BME280_pressure;Samples;Min_cycle;Max_cycle;Signal;HPM_P1;HPM_P2
2023/01/06 00:02:44;;;;;;;9.10;6.77;;;;;;;3.43;90.56;98949.05;2171519;81;21007;-82
2023/01/06 00:05:43;;;;;;;10.63;6.30;;;;;;;3.41;91.00;98957.13;2189403;81;21327;-81
2023/01/06 00:08:43;;;;;;;9.73;6.30;;;;;;;3.39;90.87;98969.09;2189546;81;20956;-82
2023/01/06 00:11:44;;;;;;;11.67;6.60;;;;;;;3.37;91.22;98969.43;2189681;81;20969;-82
2023/01/06 00:14:46;;;;;;;8.23;6.40;;;;;;;3.38;91.22;98971.19;2189541;81;20913;-82
2023/01/06 00:17:45;;;;;;;7.17;6.43;;;;;;;3.38;91.30;98971.19;2189814;81;21051;-82
2023/01/06 00:20:45;;;;;;;6.93;5.60;;;;;;;3.39;91.97;98988.44;2189785;81;20948;-82
2023/01/06 00:23:45;;;;;;;8.70;5.57;;;;;;;3.35;92.17;99007.19;2189349;81;21003;-82
2023/01/06 00:26:46;;;;;;;7.00;5.90;;;;;;;3.25;92.75;99014.06;2189375;81;20979;-81
2023/01/06 00:29:48;;;;;;;8.33;6.63;;;;;;;3.21;93.41;99016.91;2189474;81;21008;-81
2023/01/06 00:32:47;;;;;;;12.27;7.13;;;;;;;3.17;93.77;99029.20;2189006;81;20916;-82
2023/01/06 00:35:47;;;;;;;9.90;7.40;;;;;;;3.10;94.87;99033.21;2189522;81;20936;-83
2023/01/06 00:38:47;;;;;;;8.17;6.50;;;;;;;3.10;94.87;99033.21;2190003;81;20916;-82
2023/01/06 00:42:03;;;;;;;13.00;7.07;;;;;;;3.12;94.49;99035.86;2190089;81;21157;-83
2023/01/06 00:45:03;;;;;;;9.03;7.47;;;;;;;3.14;95.01;99040.27;2189615;81;20952;-83
2023/01/06 00:48:03;;;;;;;10.53;7.30;;;;;;;3.16;95.73;99053.23;2186523;81;21731;-83
2023/01/06 00:51:04;;;;;;;9.17;6.80;;;;;;;3.16;95.73;99053.23;2173870;81;21024;-82
2023/01/06 00:54:04;;;;;;;10.50;6.97;;;;;;;3.20;95.58;99062.47;2174174;81;21094;-83
2023/01/06 00:57:05;;;;;;;9.17;6.83;;;;;;;3.21;95.54;99059.48;2174134;81;20986;-82
2023/01/06 01:00:05;;;;;;;8.17;6.57;;;;;;;3.18;95.77;99065.39;2173765;81;20961;-83
2023/01/06 01:03:05;;;;;;;9.30;7.13;;;;;;;3.14;95.73;99076.38;2173565;82;20985;-83
2023/01/06 01:06:06;;;;;;;10.33;7.33;;;;;;;3.11;95.98;99091.72;2173917;81;20929;-82
2023/01/06 01:09:06;;;;;;;10.53;7.97;;;;;;;3.11;95.70;99092.13;2173672;81;20989;-82
2023/01/06 01:12:13;;;;;;;11.33;8.33;;;;;;;3.08;95.88;99094.57;2173805;81;20914;-83
2023/01/06 01:15:13;;;;;;;11.73;6.80;;;;;;;3.08;95.93;99087.72;2173548;81;21310;-83
2023/01/06 01:18:13;;;;;;;8.00;5.67;;;;;;;3.10;95.54;99104.55;2173354;81;21012;-82
2023/01/06 01:21:14;;;;;;;4.20;3.70;;;;;;;3.08;95.12;99119.07;2173378;81;20961;-81
2023/01/06 01:24:14;;;;;;;6.80;3.43;;;;;;;2.96;94.84;99123.27;2173384;82;20969;-82
2023/01/06 01:27:15;;;;;;;5.20;4.57;;;;;;;2.87;95.10;99128.88;2173510;82;21655;-82
2023/01/06 01:30:15;;;;;;;6.17;4.63;;;;;;;2.75;95.93;99136.05;2173607;81;20917;-82
2023/01/06 01:33:15;;;;;;;5.20;4.70;;;;;;;2.69;96.81;99132.30;2173851;82;20906;-84
2023/01/06 01:36:16;;;;;;;7.50;4.50;;;;;;;2.68;97.11;99127.95;2173441;82;21364;-84
2023/01/06 01:39:16;;;;;;;6.97;4.20;;;;;;;2.68;97.10;99140.43;2173450;81;20941;-82
2023/01/06 01:42:17;;;;;;;4.87;3.83;;;;;;;2.68;96.82;99145.59;2173543;81;20957;-83
2023/01/06 01:45:17;;;;;;;3.53;3.23;;;;;;;2.66;96.51;99150.19;2173530;81;21011;-82
2023/01/06 01:48:17;;;;;;;4.23;3.27;;;;;;;2.65;96.24;99154.87;2173077;81;21076;-82
2023/01/06 01:51:18;;;;;;;3.93;3.40;;;;;;;2.62;96.44;99166.32;2173233;81;20905;-82
2023/01/06 01:54:18;;;;;;;3.63;3.10;;;;;;;2.59;96.37;99163.56;2173351;81;20981;-83
2023/01/06 01:57:19;;;;;;;4.43;3.50;;;;;;;2.57;96.61;99164.78;2173637;81;20985;-82
2023/01/06 02:00:19;;;;;;;4.83;3.40;;;;;;;2.59;96.57;99168.72;2173514;81;20973;-84
2023/01/06 02:03:19;;;;;;;5.63;3.40;;;;;;;2.61;96.67;99164.55;2173569;81;20980;-82
2023/01/06 02:06:20;;;;;;;4.53;3.43;;;;;;;2.63;96.47;99168.97;2173458;81;21002;-83
2023/01/06 02:09:20;;;;;;;4.43;3.80;;;;;;;2.64;96.61;99168.16;2173438;81;20957;-82
2023/01/06 02:12:21;;;;;;;4.37;3.30;;;;;;;2.67;96.50;99177.73;2173764;82;21261;-83
2023/01/06 02:15:21;;;;;;;4.20;3.33;;;;;;;2.66;96.40;99180.72;2173849;81;20985;-83
2023/01/06 02:18:22;;;;;;;4.17;3.67;;;;;;;2.65;96.63;99190.55;2173513;82;21055;-82
2023/01/06 02:21:22;;;;;;;5.23;3.43;;;;;;;2.67;96.57;99192.79;2173592;82;21314;-83
2023/01/06 02:24:23;;;;;;;5.73;3.70;;;;;;;2.68;96.48;99191.98;2172986;82;21005;-83
2023/01/06 02:27:23;;;;;;;4.30;3.90;;;;;;;2.70;96.52;99198.50;2173488;82;20925;-82
2023/01/06 02:30:23;;;;;;;6.13;3.90;;;;;;;2.69;96.35;99199.31;2173380;82;20960;-82
2023/01/06 02:33:26;;;;;;;5.00;3.87;;;;;;;2.69;96.40;99204.47;2173322;81;20993;-83
2023/01/06 02:36:24;;;;;;;4.37;3.67;;;;;;;2.68;96.63;99207.45;2173396;81;20957;-81
2023/01/06 02:39:24;;;;;;;4.17;3.50;;;;;;;2.66;96.59;99218.09;2173652;81;21016;-83
2023/01/06 02:42:25;;;;;;;5.40;4.30;;;;;;;2.65;96.60;99214.14;2173899;81;21361;-82
2023/01/06 03:20:50;;;;;;;5.93;4.73;;;;;;;4.37;85.83;99237.57;2263279;79;22882;-81
2023/01/06 03:23:50;;;;;;;4.07;3.67;;;;;;;3.91;88.00;99248.88;2229787;80;21604;-81
2023/01/06 03:26:52;;;;;;;5.57;3.73;;;;;;;3.61;89.46;99249.67;2230106;80;21335;-83
2023/01/06 03:29:51;;;;;;;4.17;3.80;;;;;;;3.32;91.05;99246.61;2230149;80;21046;-81
2023/01/06 03:32:51;;;;;;;4.10;3.37;;;;;;;3.15;91.48;99250.09;2229933;80;20999;-82
2023/01/06 03:35:52;;;;;;;4.10;3.70;;;;;;;3.03;92.87;99252.09;2229456;80;21068;-82
2023/01/06 03:38:52;;;;;;;5.60;4.30;;;;;;;2.93;93.19;99250.77;2229300;80;20998;-82
2023/01/06 03:45:11;;;;;;;4.63;4.17;;;;;;;2.81;94.52;99250.17;2229876;80;20987;-82
2023/01/06 03:48:12;;;;;;;4.53;4.13;;;;;;;2.75;94.66;99257.61;2229771;80;21295;-83
2023/01/06 03:51:12;;;;;;;5.23;4.40;;;;;;;2.73;95.36;99254.95;2229577;80;20983;-82
2023/01/06 03:54:13;;;;;;;4.80;4.40;;;;;;;2.72;95.42;99261.33;2229690;80;21000;-82
2023/01/06 03:57:13;;;;;;;5.70;4.60;;;;;;;2.70;95.90;99270.27;2229450;80;21359;-83
2023/01/06 04:00:13;;;;;;;6.70;4.43;;;;;;;2.65;95.88;99260.14;2229317;80;21030;-81
2023/01/06 04:03:14;;;;;;;6.23;4.60;;;;;;;2.56;96.34;99257.07;2229623;80;20952;-81
2023/01/06 04:06:14;;;;;;;4.93;4.50;;;;;;;2.56;96.34;99257.07;2229465;80;21331;-81
2023/01/06 04:09:15;;;;;;;5.77;4.67;;;;;;;2.54;96.82;99257.40;2229788;80;20959;-82
2023/01/06 04:15:34;;;;;;;8.93;5.93;;;;;;;2.49;97.58;99263.61;2229867;80;20956;-82
2023/01/06 04:18:34;;;;;;;6.10;5.27;;;;;;;2.42;98.14;99256.79;2226249;80;21364;-84
2023/01/06 04:21:35;;;;;;;7.33;5.27;;;;;;;2.42;98.14;99256.79;2212605;81;20960;-80
2023/01/06 04:24:35;;;;;;;8.83;5.97;;;;;;;2.37;97.84;99265.58;2212754;80;20936;-81
2023/01/06 04:27:35;;;;;;;6.13;4.70;;;;;;;2.34;97.95;99271.86;2212823;81;20949;-82
2023/01/06 04:30:36;;;;;;;6.30;5.17;;;;;;;2.34;98.05;99274.44;2211997;81;20952;-81
2023/01/06 04:33:36;;;;;;;7.17;5.00;;;;;;;2.34;98.47;99279.59;2211523;81;20987;-82
2023/01/06 04:36:37;;;;;;;5.50;5.00;;;;;;;2.37;97.94;99286.19;2211869;81;20948;-82
2023/01/06 04:39:37;;;;;;;7.83;5.80;;;;;;;2.37;97.94;99286.19;2211731;81;21035;-82
2023/01/06 04:45:56;;;;;;;7.77;6.60;;;;;;;2.45;97.91;99293.02;2213086;80;21357;-82
2023/01/06 04:48:57;;;;;;;6.53;5.60;;;;;;;2.45;97.87;99292.61;2212644;81;20985;-83
2023/01/06 04:51:57;;;;;;;6.43;5.70;;;;;;;2.47;98.03;99289.70;2212676;81;20955;-83
2023/01/06 04:54:57;;;;;;;5.67;5.13;;;;;;;3.45;100.00;99294.51;2213005;81;20905;-81
2023/01/06 04:57:58;;;;;;;6.20;5.23;;;;;;;3.29;97.85;99294.60;2212481;81;20902;-83
2023/01/06 05:00:58;;;;;;;7.00;6.17;;;;;;;3.00;97.12;99294.09;2212295;81;20917;-82
2023/01/06 05:03:59;;;;;;;8.73;5.80;;;;;;;2.86;97.32;99297.69;2212779;81;20980;-82
2023/01/06 05:06:59;;;;;;;7.50;6.70;;;;;;;2.74;97.61;99293.22;2212390;81;20921;-83
2023/01/06 05:09:59;;;;;;;9.13;7.97;;;;;;;2.69;98.25;99298.14;2211993;81;20916;-82
2023/01/06 05:13:00;;;;;;;9.20;6.17;;;;;;;2.67;98.38;99304.03;2212043;81;20948;-83
2023/01/06 05:16:00;;;;;;;9.30;6.47;;;;;;;2.63;98.83;99299.13;2212563;81;20995;-84
2023/01/06 05:19:01;;;;;;;9.53;6.53;;;;;;;2.60;98.41;99310.57;2212334;80;21427;-82
2023/01/06 05:22:01;;;;;;;9.57;6.20;;;;;;;2.60;98.53;99316.09;2211916;81;21431;-83
2023/01/06 05:25:01;;;;;;;5.97;5.33;;;;;;;2.56;98.85;99323.67;2212417;81;20970;-82
2023/01/06 05:28:02;;;;;;;7.47;6.30;;;;;;;2.53;98.74;99326.09;2212080;81;21070;-83
2023/01/06 05:31:02;;;;;;;7.23;6.53;;;;;;;2.48;98.82;99314.67;2211665;81;20953;-83
2023/01/06 05:34:03;;;;;;;9.97;7.73;;;;;;;2.48;99.20;99310.80;2211519;81;20984;-83
2023/01/06 05:37:03;;;;;;;9.00;7.57;;;;;;;2.50;98.81;99310.48;2211443;81;20913;-84
2023/01/06 05:40:03;;;;;;;9.60;7.97;;;;;;;2.49;98.99;99316.44;2211327;81;21319;-83
2023/01/06 05:43:04;;;;;;;8.47;7.30;;;;;;;2.48;98.59;99324.97;2211211;81;21004;-81
2023/01/06 05:46:04;;;;;;;10.23;9.13;;;;;;;2.47;98.53;99327.07;2212412;81;20956;-84
2023/01/06 05:49:05;;;;;;;6.53;5.90;;;;;;;2.46;98.34;99321.44;2211899;80;21019;-82
2023/01/06 05:52:05;;;;;;;6.47;5.87;;;;;;;2.47;98.16;99332.22;2211538;81;20972;-83
2023/01/06 05:55:05;;;;;;;6.87;6.17;;;;;;;2.49;98.07;99333.59;2211370;81;21011;-83
2023/01/06 05:58:06;;;;;;;11.90;9.20;;;;;;;2.50;97.85;99340.11;2210655;81;20947;-83
2023/01/06 06:01:06;;;;;;;9.77;8.10;;;;;;;2.49;97.67;99348.65;2210832;81;20936;-82
2023/01/06 06:04:06;;;;;;;8.17;7.37;;;;;;;2.48;97.59;99353.32;2211302;81;20968;-83
2023/01/06 06:07:07;;;;;;;11.07;9.87;;;;;;;2.55;97.37;99359.27;2210857;81;21137;-83
2023/01/06 06:10:08;;;;;;;8.07;7.20;;;;;;;2.55;97.37;99359.27;2211154;81;20925;-83
2023/01/06 06:13:08;;;;;;;8.67;7.83;;;;;;;2.60;97.50;99361.20;2209681;81;20937;-81
2023/01/06 06:16:08;;;;;;;12.50;10.50;;;;;;;2.62;97.48;99361.79;2209514;81;20952;-83
2023/01/06 06:19:08;;;;;;;14.30;10.43;;;;;;;2.63;97.29;99356.23;2210791;80;21030;-82
2023/01/06 06:22:09;;;;;;;23.17;14.63;;;;;;;2.64;97.40;99364.05;2219458;80;20981;-82
2023/01/06 06:25:09;;;;;;;24.67;14.87;;;;;;;2.65;97.29;99364.93;2219573;80;20940;-83
2023/01/06 06:28:10;;;;;;;29.07;15.30;;;;;;;2.69;97.32;99368.14;2220284;80;21000;-82
2023/01/06 06:31:10;;;;;;;19.27;12.63;;;;;;;2.71;97.15;99371.69;2220772;80;20924;-81
2023/01/06 06:34:10;;;;;;;15.97;11.17;;;;;;;2.74;97.22;99370.55;2221689;80;20985;-84
2023/01/06 06:37:11;;;;;;;14.90;11.90;;;;;;;2.76;97.06;99370.23;2221879;80;21305;-83
2023/01/06 06:40:11;;;;;;;25.67;15.60;;;;;;;2.75;96.95;99362.02;2221521;80;21040;-83
2023/01/06 06:43:12;;;;;;;18.37;13.40;;;;;;;2.75;96.99;99370.63;2222113;80;20960;-83
2023/01/06 06:46:12;;;;;;;19.87;11.63;;;;;;;2.77;96.84;99369.02;2221705;80;20940;-83
2023/01/06 06:49:12;;;;;;;12.07;10.23;;;;;;;2.76;96.73;99365.07;2221156;80;21012;-83
2023/01/06 06:52:13;;;;;;;15.13;11.97;;;;;;;2.72;96.70;99364.44;2221213;80;21048;-81
2023/01/06 06:55:13;;;;;;;24.27;18.00;;;;;;;2.67;96.58;99368.47;2221940;80;20893;-83
2023/01/06 06:58:14;;;;;;;32.50;20.80;;;;;;;2.64;96.57;99364.45;2222842;80;21014;-83
2023/01/06 07:01:14;;;;;;;27.13;19.40;;;;;;;2.60;96.37;99362.48;2222243;80;20992;-82
2023/01/06 07:04:14;;;;;;;22.70;15.67;;;;;;;2.58;96.55;99368.85;2222338;80;21020;-84
2023/01/06 07:07:15;;;;;;;16.03;11.90;;;;;;;2.55;96.28;99373.45;2222649;80;20979;-82
2023/01/06 07:10:15;;;;;;;17.87;10.63;;;;;;;2.53;96.29;99385.37;2222559;80;21368;-83
2023/01/06 07:13:16;;;;;;;16.70;11.57;;;;;;;2.54;96.26;99392.29;2222557;80;20983;-82
2023/01/06 07:16:16;;;;;;;15.97;11.17;;;;;;;2.61;96.57;99396.11;2222469;80;20985;-83
2023/01/06 07:19:16;;;;;;;16.67;11.33;;;;;;;2.68;96.27;99393.44;2222277;80;21047;-82
2023/01/06 07:22:17;;;;;;;16.90;12.00;;;;;;;2.73;96.04;99398.42;2222235;80;21009;-81
2023/01/06 07:25:17;;;;;;;16.87;11.23;;;;;;;2.74;95.70;99401.08;2221870;80;20959;-83
2023/01/06 07:28:18;;;;;;;13.47;10.27;;;;;;;2.80;95.50;99402.69;2221720;80;20952;-82
2023/01/06 07:31:18;;;;;;;15.90;10.23;;;;;;;2.85;95.15;99412.83;2222410;80;20996;-83
2023/01/06 07:34:18;;;;;;;19.00;12.90;;;;;;;2.87;94.97;99411.22;2222260;80;21386;-83
2023/01/06 07:37:19;;;;;;;38.43;23.67;;;;;;;2.92;94.91;99415.31;2222616;80;20961;-84
2023/01/06 07:40:19;;;;;;;34.30;18.87;;;;;;;3.00;94.84;99415.30;2222901;80;20955;-83
2023/01/06 07:43:20;;;;;;;29.07;17.83;;;;;;;3.02;94.56;99412.80;2222873;80;20960;-82
2023/01/06 07:46:20;;;;;;;28.73;17.33;;;;;;;3.01;94.51;99425.21;2222526;80;20972;-83
2023/01/06 07:49:20;;;;;;;21.80;14.17;;;;;;;2.98;94.46;99436.26;2222773;80;21043;-82
2023/01/06 07:52:21;;;;;;;18.90;12.63;;;;;;;2.93;94.38;99438.13;2222982;80;20912;-83
2023/01/06 07:55:21;;;;;;;18.63;11.80;;;;;;;2.93;94.63;99441.99;2222421;80;20920;-83
2023/01/06 07:58:24;;;;;;;14.83;11.00;;;;;;;2.97;94.51;99440.94;2222463;80;21332;-83
2023/01/06 08:01:25;;;;;;;19.97;12.17;;;;;;;3.00;94.31;99446.25;2222500;80;20916;-83
2023/01/06 08:04:25;;;;;;;28.67;14.67;;;;;;;3.05;93.96;99439.63;2222430;80;20964;-82
2023/01/06 08:07:25;;;;;;;19.10;12.50;;;;;;;3.09;93.75;99447.12;2222416;80;21264;-82
2023/01/06 08:10:26;;;;;;;36.87;17.10;;;;;;;3.12;93.65;99442.12;2222286;80;21347;-82
2023/01/06 08:13:26;;;;;;;24.23;13.33;;;;;;;3.12;93.39;99448.16;2222205;80;20952;-82
2023/01/06 08:16:27;;;;;;;30.37;15.50;;;;;;;3.19;93.60;99448.95;2222367;80;20936;-82
2023/01/06 08:19:27;;;;;;;25.97;14.63;;;;;;;3.33;93.41;99449.64;2222128;80;21003;-83
2023/01/06 08:22:27;;;;;;;23.17;13.93;;;;;;;3.37;91.75;99446.80;2221663;80;20940;-82
2023/01/06 08:25:28;;;;;;;13.47;10.27;;;;;;;3.45;91.87;99449.36;2222099;80;20948;-82
2023/01/06 08:28:28;;;;;;;11.00;9.30;;;;;;;3.47;91.41;99451.23;2221789;80;21285;-81
2023/01/06 08:31:29;;;;;;;15.70;10.10;;;;;;;3.50;91.73;99451.39;2222113;80;20916;-81
2023/01/06 08:34:29;;;;;;;9.10;7.07;;;;;;;3.60;91.60;99451.84;2222460;80;20924;-82
2023/01/06 08:37:29;;;;;;;7.17;6.00;;;;;;;3.72;90.96;99453.32;2221813;80;21483;-80
2023/01/06 08:40:30;;;;;;;5.83;5.10;;;;;;;3.77;89.44;99447.97;2221947;80;20936;-82
2023/01/06 08:43:30;;;;;;;12.00;7.73;;;;;;;3.81;88.82;99448.59;2221989;80;20969;-82
2023/01/06 08:46:31;;;;;;;7.70;6.00;;;;;;;3.89;88.62;99458.41;2221881;80;21375;-82
2023/01/06 08:49:31;;;;;;;7.13;5.23;;;;;;;3.90;86.54;99461.47;2222059;80;21039;-82
2023/01/06 08:52:31;;;;;;;5.73;5.17;;;;;;;3.82;86.47;99464.57;2221994;80;20944;-82
2023/01/06 08:55:32;;;;;;;6.73;5.07;;;;;;;3.86;86.39;99466.01;2221699;80;20948;-82
2023/01/06 08:58:32;;;;;;;8.03;6.10;;;;;;;3.93;86.47;99470.25;2221991;80;20944;-81
2023/01/06 09:01:33;;;;;;;8.07;6.97;;;;;;;4.00;85.66;99476.59;2221880;80;21431;-82
2023/01/06 09:04:33;;;;;;;7.37;6.17;;;;;;;4.01;85.78;99469.32;2221955;80;20955;-83
2023/01/06 09:07:33;;;;;;;7.53;6.40;;;;;;;4.12;84.82;99457.80;2222329;80;20936;-81
2023/01/06 09:10:34;;;;;;;5.73;5.23;;;;;;;4.12;84.17;99459.09;2222183;80;20944;-83
2023/01/06 09:13:34;;;;;;;7.03;6.33;;;;;;;4.17;84.18;99461.48;2222344;80;20905;-82
2023/01/06 09:16:35;;;;;;;7.13;5.80;;;;;;;4.26;83.89;99454.16;2222298;80;21395;-81
2023/01/06 09:19:35;;;;;;;8.37;6.60;;;;;;;4.33;83.15;99452.73;2221933;80;21022;-82
2023/01/06 09:22:35;;;;;;;11.00;7.50;;;;;;;4.36;82.65;99455.09;2221722;80;20971;-85
2023/01/06 09:25:36;;;;;;;15.47;10.07;;;;;;;4.36;81.66;99451.62;2221909;80;20923;-83
2023/01/06 09:28:36;;;;;;;9.60;7.60;;;;;;;4.38;82.74;99444.41;2223055;80;20923;-84
2023/01/06 09:31:36;;;;;;;6.50;5.23;;;;;;;4.52;83.72;99448.03;2222022;80;21325;-83
2023/01/06 09:34:37;;;;;;;7.30;5.37;;;;;;;4.60;83.08;99448.84;2222388;80;20956;-81
2023/01/06 09:37:37;;;;;;;5.10;4.60;;;;;;;4.69;82.97;99449.67;2221775;80;20924;-80
2023/01/06 09:40:38;;;;;;;5.33;4.83;;;;;;;4.73;82.33;99439.53;2221710;80;21307;-80
2023/01/06 09:43:38;;;;;;;5.97;5.23;;;;;;;4.82;82.18;99435.16;2221612;80;20964;-81
2023/01/06 09:46:39;;;;;;;5.40;4.90;;;;;;;4.85;82.62;99432.72;2221627;80;20920;-81
2023/01/06 09:49:39;;;;;;;5.90;4.90;;;;;;;4.87;83.10;99428.48;2221983;80;20889;-81
2023/01/06 09:52:39;;;;;;;6.87;4.77;;;;;;;4.83;82.47;99427.88;2222342;80;21327;-82
2023/01/06 09:55:40;;;;;;;5.00;4.37;;;;;;;4.72;81.97;99425.23;2221458;80;20932;-82
2023/01/06 09:58:40;;;;;;;5.20;4.57;;;;;;;4.75;82.46;99417.61;2221643;80;20987;-81
2023/01/06 10:01:41;;;;;;;4.57;4.17;;;;;;;4.88;82.25;99417.33;2221943;80;21249;-81
2023/01/06 10:04:41;;;;;;;5.17;4.03;;;;;;;4.93;81.43;99418.41;2221559;80;20924;-82
2023/01/06 10:07:41;;;;;;;5.13;4.63;;;;;;;4.95;81.29;99407.72;2221610;80;20956;-82
2023/01/06 10:10:42;;;;;;;4.30;3.90;;;;;;;5.08;81.26;99404.83;2222181;80;20956;-82
2023/01/06 10:13:42;;;;;;;3.77;3.47;;;;;;;5.22;81.16;99396.80;2222471;80;20905;-82
2023/01/06 10:16:42;;;;;;;5.27;3.90;;;;;;;5.33;80.03;99396.83;2222048;80;20977;-82
2023/01/06 10:19:43;;;;;;;5.57;4.63;;;;;;;5.35;79.24;99396.48;2221286;80;20940;-82
2023/01/06 10:22:43;;;;;;;6.17;5.03;;;;;;;5.31;79.73;99398.47;2211387;81;20976;-81
2023/01/06 10:25:44;;;;;;;5.90;5.27;;;;;;;5.37;80.00;99407.37;2211520;81;21386;-81
2023/01/06 10:28:44;;;;;;;5.90;5.17;;;;;;;5.30;79.19;99394.11;2211566;81;20913;-82
2023/01/06 10:31:44;;;;;;;9.30;6.47;;;;;;;5.23;79.52;99394.67;2211821;81;20901;-82
2023/01/06 10:34:45;;;;;;;7.93;6.57;;;;;;;5.20;79.82;99388.05;2211702;81;21335;-83
2023/01/06 10:37:45;;;;;;;8.33;6.47;;;;;;;5.30;79.99;99390.23;2211643;81;20893;-83
2023/01/06 10:40:46;;;;;;;6.93;6.20;;;;;;;5.32;80.04;99378.23;2211828;81;21351;-83
2023/01/06 10:43:46;;;;;;;6.40;5.50;;;;;;;5.33;79.87;99382.59;2211383;81;20956;-81
2023/01/06 10:46:48;;;;;;;6.10;5.50;;;;;;;5.24;79.41;99389.98;2211353;81;20869;-81
2023/01/06 10:49:47;;;;;;;6.10;5.30;;;;;;;5.10;77.65;99381.61;2211305;81;20933;-81
2023/01/06 10:52:47;;;;;;;7.73;6.40;;;;;;;4.97;79.13;99385.79;2211307;81;20993;-82
2023/01/06 10:55:48;;;;;;;6.83;6.10;;;;;;;4.97;79.49;99381.50;2211595;81;20885;-81
2023/01/06 10:58:48;;;;;;;5.97;5.37;;;;;;;5.07;80.51;99375.89;2211546;81;21352;-82
2023/01/06 11:01:48;;;;;;;7.07;5.80;;;;;;;5.26;79.77;99366.34;2211171;81;20944;-81
2023/01/06 11:04:49;;;;;;;8.30;6.60;;;;;;;5.36;79.21;99355.12;2211550;81;20909;-81
2023/01/06 11:07:49;;;;;;;8.13;5.77;;;;;;;5.43;78.70;99353.66;2211505;81;21387;-83
2023/01/06 11:10:50;;;;;;;7.97;5.90;;;;;;;5.41;78.18;99360.07;2211351;81;20885;-81
2023/01/06 11:13:50;;;;;;;9.03;5.70;;;;;;;5.49;78.65;99352.61;2211342;81;21001;-81
2023/01/06 11:16:50;;;;;;;7.00;6.30;;;;;;;5.50;79.01;99359.55;2210749;81;21340;-82
2023/01/06 11:19:51;;;;;;;7.13;5.93;;;;;;;5.54;78.95;99364.03;2210873;80;20979;-81
2023/01/06 11:22:51;;;;;;;9.53;5.67;;;;;;;5.51;77.64;99352.67;2221320;80;20955;-81
2023/01/06 11:25:52;;;;;;;6.10;5.50;;;;;;;5.49;78.02;99355.61;2221117;80;21323;-82
2023/01/06 11:28:52;;;;;;;7.40;5.07;;;;;;;5.54;77.93;99349.80;2221343;80;20971;-80
2023/01/06 11:31:52;;;;;;;5.47;4.77;;;;;;;5.63;78.10;99343.67;2221979;80;20988;-82
2023/01/06 11:34:53;;;;;;;5.70;5.20;;;;;;;5.70;77.84;99340.50;2221848;80;20909;-81
2023/01/06 11:37:53;;;;;;;8.17;5.90;;;;;;;5.66;77.34;99325.67;2221901;80;20960;-81
2023/01/06 11:40:54;;;;;;;7.43;5.67;;;;;;;5.79;77.36;99313.19;2221881;80;20947;-82
2023/01/06 11:43:54;;;;;;;5.87;5.27;;;;;;;5.86;77.34;99306.11;2222221;80;21320;-82
2023/01/06 11:46:55;;;;;;;6.93;5.77;;;;;;;5.91;77.90;99314.98;2222273;80;20913;-82
2023/01/06 11:49:55;;;;;;;7.40;6.10;;;;;;;5.90;77.52;99312.80;2222435;80;20916;-82
2023/01/06 11:52:55;;;;;;;6.03;5.43;;;;;;;5.92;77.83;99300.78;2222358;80;21440;-82
2023/01/06 11:55:56;;;;;;;6.53;5.57;;;;;;;5.98;76.80;99294.95;2222352;80;20908;-82
2023/01/06 11:58:56;;;;;;;5.90;5.20;;;;;;;5.93;77.42;99302.96;2222393;80;21000;-82
2023/01/06 12:01:58;;;;;;;9.07;6.07;;;;;;;5.93;76.74;99299.08;2222219;80;20936;-81
2023/01/06 12:04:57;;;;;;;8.67;6.23;;;;;;;5.88;77.41;99305.34;2222341;80;20972;-82
2023/01/06 12:07:57;;;;;;;7.10;6.17;;;;;;;5.95;77.55;99301.31;2222286;80;20912;-82
2023/01/06 12:10:58;;;;;;;7.10;6.10;;;;;;;6.01;77.36;99301.54;2222304;80;20964;-82
2023/01/06 12:13:58;;;;;;;6.80;6.10;;;;;;;5.98;77.07;99302.72;2221468;80;21299;-82
2023/01/06 12:16:58;;;;;;;6.63;5.80;;;;;;;6.02;77.42;99290.34;2221390;80;20972;-81
2023/01/06 12:19:59;;;;;;;9.60;6.33;;;;;;;6.02;77.20;99283.45;2221638;80;20912;-81
2023/01/06 12:22:59;;;;;;;6.57;5.90;;;;;;;6.08;77.17;99289.31;2210863;80;21059;-81
2023/01/06 12:26:00;;;;;;;7.00;6.30;;;;;;;6.09;76.88;99285.01;2210765;81;20988;-82
2023/01/06 12:29:00;;;;;;;9.23;7.40;;;;;;;6.03;76.54;99287.81;2211220;81;20897;-82
2023/01/06 12:32:00;;;;;;;7.67;6.67;;;;;;;5.92;76.90;99284.36;2210930;81;20980;-81
2023/01/06 12:35:01;;;;;;;8.77;7.60;;;;;;;5.90;77.56;99283.42;2211035;81;20928;-82
2023/01/06 12:38:01;;;;;;;9.90;7.23;;;;;;;5.84;77.67;99294.40;2211027;81;21296;-81
2023/01/06 12:41:02;;;;;;;10.23;7.13;;;;;;;5.78;77.55;99292.87;2211480;81;20945;-81
2023/01/06 12:44:02;;;;;;;8.40;6.80;;;;;;;5.70;77.95;99275.75;2211426;81;20956;-81
2023/01/06 12:47:02;;;;;;;9.10;6.97;;;;;;;5.66;78.12;99276.87;2211363;81;20928;-82
2023/01/06 12:50:03;;;;;;;10.40;7.33;;;;;;;5.57;77.83;99290.77;2211426;81;20965;-80
2023/01/06 12:53:03;;;;;;;8.90;7.67;;;;;;;5.48;78.73;99287.82;2211389;81;20948;-81
2023/01/06 12:56:04;;;;;;;11.07;7.30;;;;;;;5.50;79.34;99274.52;2211330;81;21360;-82
2023/01/06 12:59:04;;;;;;;11.33;8.83;;;;;;;5.48;79.38;99269.28;2211510;81;20940;-81
2023/01/06 13:02:04;;;;;;;11.00;9.27;;;;;;;5.44;79.29;99260.92;2211392;81;20964;-81
2023/01/06 13:05:05;;;;;;;11.20;9.23;;;;;;;5.33;79.54;99264.80;2211387;81;21082;-82
2023/01/06 13:08:05;;;;;;;15.17;10.90;;;;;;;5.26;80.06;99258.50;2211751;81;20927;-80
2023/01/06 13:11:06;;;;;;;12.40;11.10;;;;;;;5.23;80.47;99252.33;2211682;81;21324;-82
2023/01/06 13:14:06;;;;;;;15.47;11.30;;;;;;;5.18;80.30;99239.17;2211660;81;20963;-82
2023/01/06 13:17:07;;;;;;;21.40;12.23;;;;;;;5.13;80.37;99235.52;2211944;81;20950;-81
2023/01/06 13:20:08;;;;;;;15.30;11.83;;;;;;;5.08;80.82;99228.88;2211634;81;21351;-81
2023/01/06 13:23:07;;;;;;;17.90;13.13;;;;;;;5.02;80.55;99226.45;2220968;80;21007;-81
2023/01/06 13:26:08;;;;;;;13.87;10.97;;;;;;;5.00;81.08;99217.75;2221326;80;20985;-81
2023/01/06 13:29:08;;;;;;;23.10;14.33;;;;;;;4.98;81.14;99207.34;2221021;80;21260;-82
2023/01/06 13:32:09;;;;;;;23.37;13.33;;;;;;;5.00;81.35;99203.52;2221009;80;20932;-80
2023/01/06 13:35:09;;;;;;;22.80;13.13;;;;;;;5.01;81.33;99206.17;2221095;80;20964;-81
2023/01/06 13:38:09;;;;;;;21.83;14.17;;;;;;;4.99;81.14;99216.87;2221202;80;20976;-81
2023/01/06 13:41:10;;;;;;;18.40;12.83;;;;;;;4.94;81.51;99227.44;2221081;80;20928;-82
2023/01/06 13:44:10;;;;;;;19.33;12.93;;;;;;;4.90;81.76;99219.09;2221240;80;20965;-82
2023/01/06 13:47:11;;;;;;;17.90;12.37;;;;;;;4.89;82.00;99199.63;2221377;80;21284;-82
2023/01/06 13:50:11;;;;;;;16.83;10.77;;;;;;;4.85;82.02;99186.09;2222059;80;20968;-82
2023/01/06 13:53:11;;;;;;;19.30;11.93;;;;;;;4.81;82.03;99200.62;2221875;80;21019;-81
2023/01/06 13:56:12;;;;;;;18.13;12.20;;;;;;;4.75;82.29;99208.13;2221938;80;20957;-81
2023/01/06 13:59:12;;;;;;;26.57;14.57;;;;;;;4.72;82.66;99201.54;2221598;80;20952;-82
2023/01/06 14:02:12;;;;;;;38.53;20.33;;;;;;;4.72;82.87;99193.78;2222269;80;20924;-81
2023/01/06 14:05:13;;;;;;;39.90;22.23;;;;;;;4.70;82.91;99179.50;2222106;80;21372;-82
2023/01/06 14:08:13;;;;;;;30.43;17.70;;;;;;;4.68;83.11;99167.33;2221595;80;20916;-81
2023/01/06 14:11:14;;;;;;;17.53;12.77;;;;;;;4.65;83.23;99166.80;2222134;80;20905;-80
2023/01/06 14:14:14;;;;;;;18.93;11.27;;;;;;;4.63;83.05;99162.37;2222146;80;20936;-82
2023/01/06 14:17:14;;;;;;;13.80;11.07;;;;;;;4.50;82.86;99157.13;2222058;80;20893;-81
2023/01/06 14:20:15;;;;;;;17.40;11.97;;;;;;;4.50;82.86;99157.13;2222226;80;20935;-84
2023/01/06 14:23:15;;;;;;;17.83;12.47;;;;;;;4.44;83.23;99169.80;2221923;80;21352;-82
2023/01/06 14:26:16;;;;;;;17.43;13.27;;;;;;;4.39;83.55;99184.23;2222094;80;20896;-81
2023/01/06 14:29:16;;;;;;;18.37;12.83;;;;;;;4.32;83.54;99171.84;2221871;80;20928;-82
2023/01/06 14:32:17;;;;;;;18.80;13.30;;;;;;;4.25;83.59;99174.59;2221777;80;20924;-81
2023/01/06 14:35:17;;;;;;;22.37;15.90;;;;;;;4.22;83.64;99180.92;2221880;80;20904;-82
2023/01/06 14:38:17;;;;;;;23.23;16.30;;;;;;;4.18;83.74;99183.31;2222095;80;20952;-81
2023/01/06 14:41:18;;;;;;;26.43;15.67;;;;;;;4.14;83.83;99184.88;2222036;80;21320;-81
2023/01/06 14:44:18;;;;;;;24.57;15.97;;;;;;;4.07;83.87;99178.57;2222015;80;20947;-81
2023/01/06 14:47:19;;;;;;;26.87;15.67;;;;;;;4.09;84.01;99186.39;2221946;80;20920;-82
2023/01/06 14:50:19;;;;;;;22.33;15.17;;;;;;;4.06;83.62;99175.52;2221731;80;21348;-80
2023/01/06 14:53:19;;;;;;;24.17;14.47;;;;;;;4.02;83.65;99169.74;2221355;80;21018;-82
2023/01/06 14:56:20;;;;;;;18.00;12.17;;;;;;;4.01;83.77;99169.68;2221894;80;20876;-82
2023/01/06 14:59:21;;;;;;;18.40;11.57;;;;;;;3.97;83.63;99172.54;2221708;80;21431;-82